Time;durP1;ratioP1;P1;durP2;ratioP2;P2;SDS_P1;SDS_P2;PMS_P1;PMS_P2;Temp;Humidity;BMP_temperature;BMP_pressure;BME280_temperature;BME280_humidity;BME280_pressure;Samples;Min_cycle;Max_cycle;Signal;HPM_P1;HPM_P2
2022/01/23 00:00:05;;;;;;;2.35;0.30;;;20.50;46.90;;;;;;4999214;28;20366;-93
2022/01/23 00:02:33;;;;;;;3.72;0.50;;;20.50;47.00;;;;;;4999242;28;20038;-93
2022/01/23 00:05:05;;;;;;;3.92;0.90;;;20.50;47.00;;;;;;4999057;28;20062;-92
2022/01/23 00:07:31;;;;;;;1.85;0.40;;;21.80;47.70;;;;;;5016049;28;20144;-93
2022/01/23 00:09:57;;;;;;;3.70;1.05;;;20.40;47.00;;;;;;4998546;28;20054;-93
2022/01/23 00:12:25;;;;;;;1.67;0.45;;;20.40;47.00;;;;;;4996461;28;20050;-93
2022/01/23 00:17:35;;;;;;;3.60;0.60;;;20.40;47.00;;;;;;4996840;28;20046;-91
2022/01/23 00:20:04;;;;;;;1.90;0.55;;;20.40;47.00;;;;;;4997783;28;20113;-93
2022/01/23 00:22:39;;;;;;;3.22;0.50;;;20.40;47.00;;;;;;4998303;28;20050;-93
2022/01/23 00:30:34;;;;;;;2.40;0.40;;;20.30;47.00;;;;;;4998253;28;20057;-93
2022/01/23 00:33:05;;;;;;;1.50;0.47;;;20.30;47.00;;;;;;4998265;28;20729;-91
2022/01/23 00:35:31;;;;;;;4.18;0.70;;;20.30;47.00;;;;;;4998044;28;20258;-94
2022/01/23 00:37:57;;;;;;;1.25;0.40;;;20.30;47.00;;;;;;4998271;28;20077;-93
2022/01/23 00:40:22;;;;;;;2.00;0.45;;;20.30;47.00;;;;;;4997476;28;20038;-93
2022/01/23 00:42:48;;;;;;;2.20;0.50;;;20.30;47.00;;;;;;4997782;28;20046;-93
2022/01/23 00:47:39;;;;;;;1.48;0.30;;;20.30;47.10;;;;;;4996771;28;20486;-92
2022/01/23 00:50:05;;;;;;;2.08;0.40;;;20.20;47.10;;;;;;4982698;28;20058;-93
2022/01/23 00:52:30;;;;;;;2.50;0.60;;;20.20;47.00;;;;;;4977988;28;20609;-93
2022/01/23 00:54:57;;;;;;;2.78;0.50;;;21.10;47.60;;;;;;4978638;28;20057;-93
2022/01/23 00:57:23;;;;;;;3.42;0.70;;;20.20;47.00;;;;;;4995924;28;20061;-94
2022/01/23 00:59:48;;;;;;;2.75;0.70;;;20.20;47.10;;;;;;4978507;28;20046;-94
2022/01/23 01:02:14;;;;;;;1.00;0.30;;;20.20;47.10;;;;;;4979044;28;20057;-93
2022/01/23 01:04:39;;;;;;;2.65;0.50;;;20.20;47.10;;;;;;4978543;28;20517;-92
2022/01/23 01:07:05;;;;;;;3.13;0.75;;;20.20;47.10;;;;;;4977843;28;20050;-93
2022/01/23 01:09:31;;;;;;;2.53;0.75;;;20.20;47.20;;;;;;4978764;28;20064;-93
2022/01/23 01:12:07;;;;;;;2.03;0.50;;;20.10;47.10;;;;;;4977405;28;20046;-94
2022/01/23 01:17:17;;;;;;;1.77;0.50;;;20.10;47.10;;;;;;4977930;28;20511;-93
2022/01/23 01:30:57;;;;;;;3.35;0.60;;;20.10;47.10;;;;;;4983894;28;20050;-94
2022/01/23 01:35:58;;;;;;;2.92;0.68;;;20.00;47.10;;;;;;4996533;28;20450;-94
2022/01/23 01:38:24;;;;;;;2.13;0.50;;;20.00;47.10;;;;;;4997458;28;20137;-94
2022/01/23 01:40:50;;;;;;;1.88;0.57;;;20.00;47.20;;;;;;4997243;28;20054;-94
2022/01/23 01:43:16;;;;;;;2.55;0.50;;;20.00;47.20;;;;;;4997031;28;20076;-93
2022/01/23 01:45:42;;;;;;;2.92;0.75;;;20.00;47.20;;;;;;5014624;28;20104;-93
2022/01/23 01:48:08;;;;;;;2.00;0.55;;;21.20;47.80;;;;;;4996954;28;20088;-93
2022/01/23 01:50:34;;;;;;;1.90;0.40;;;21.30;47.90;;;;;;4997154;28;20049;-94
2022/01/23 01:53:00;;;;;;;2.42;0.50;;;20.00;47.20;;;;;;4997127;28;20050;-94
2022/01/23 01:55:29;;;;;;;1.60;0.50;;;20.00;47.20;;;;;;4997160;28;20042;-94
2022/01/23 01:58:01;;;;;;;2.45;0.38;;;20.00;47.20;;;;;;5013733;28;20053;-93
2022/01/23 02:00:52;;;;;;;3.20;0.68;;;20.00;47.20;;;;;;4997177;28;20410;-93
2022/01/23 02:08:22;;;;;;;3.90;0.80;;;19.90;47.20;;;;;;4996046;28;20057;-93
2022/01/23 02:08:55;;;;;;;1.73;0.40;;;19.90;47.20;;;;;;4996604;28;20065;-94
2022/01/23 02:11:42;;;;;;;3.13;0.57;;;19.90;47.20;;;;;;4996915;28;20053;-93
2022/01/23 02:14:32;;;;;;;2.33;0.50;;;19.90;47.20;;;;;;4982627;28;20041;-93
2022/01/23 02:17:17;;;;;;;3.22;0.68;;;19.90;47.30;;;;;;4996472;28;20053;-93
2022/01/23 02:25:29;;;;;;;2.72;0.60;;;19.90;47.30;;;;;;4989674;28;20057;-93
2022/01/23 02:55:23;;;;;;;1.98;0.50;;;19.80;47.30;;;;;;4965888;28;20141;-92
2022/01/23 02:58:01;;;;;;;3.08;0.57;;;19.80;47.40;;;;;;4976516;28;20082;-93
2022/01/23 03:00:33;;;;;;;2.05;0.50;;;19.80;47.40;;;;;;4976399;28;20557;-94
2022/01/23 03:03:09;;;;;;;2.45;0.60;;;19.70;47.30;;;;;;4976506;28;20057;-93
2022/01/23 03:05:37;;;;;;;2.35;0.50;;;20.60;47.80;;;;;;4976987;28;20046;-93
2022/01/23 03:08:26;;;;;;;1.73;0.50;;;19.70;47.40;;;;;;4976305;28;20053;-93
2022/01/23 03:11:05;;;;;;;3.15;0.45;;;20.80;47.90;;;;;;4976760;28;20084;-92
2022/01/23 03:16:27;;;;;;;2.03;0.47;;;19.70;47.40;;;;;;4978968;28;20069;-93
2022/01/23 03:24:33;;;;;;;2.33;0.60;;;19.70;47.50;;;;;;4999868;28;20054;-94
2022/01/23 03:29:53;;;;;;;1.85;0.50;;;19.60;47.50;;;;;;4999522;28;20050;-94
2022/01/23 03:34:46;;;;;;;1.70;0.40;;;19.60;47.40;;;;;;4999152;28;20058;-94
2022/01/23 03:37:12;;;;;;;3.83;0.47;;;19.60;47.50;;;;;;4999217;28;20050;-94
2022/01/23 03:39:37;;;;;;;1.67;0.45;;;19.60;47.50;;;;;;4997870;28;20045;-94
2022/01/23 03:42:03;;;;;;;2.42;0.50;;;19.60;47.50;;;;;;4999201;28;20057;-94
2022/01/23 03:44:29;;;;;;;1.98;0.50;;;19.60;47.50;;;;;;4999897;28;20042;-94
2022/01/23 03:47:13;;;;;;;2.35;0.50;;;19.60;47.50;;;;;;4963652;28;20054;-94
2022/01/23 03:49:39;;;;;;;2.03;0.50;;;19.60;47.50;;;;;;4999372;28;20092;-94
2022/01/23 03:52:07;;;;;;;2.75;0.60;;;19.60;47.50;;;;;;4999412;28;20077;-92
2022/01/23 03:54:33;;;;;;;2.05;0.63;;;19.60;47.50;;;;;;4999620;28;20520;-93
2022/01/23 03:56:59;;;;;;;1.55;0.40;;;19.60;47.50;;;;;;4999465;28;20050;-93
2022/01/23 03:59:25;;;;;;;1.60;0.40;;;19.60;47.50;;;;;;4999549;28;20565;-94
2022/01/23 04:01:51;;;;;;;1.45;0.40;;;19.60;47.50;;;;;;4999340;28;20130;-94
2022/01/23 04:07:00;;;;;;;2.15;0.50;;;20.00;47.70;;;;;;4999238;28;20050;-95
2022/01/23 04:09:26;;;;;;;1.50;0.50;;;19.70;47.50;;;;;;4999124;28;20038;-93
2022/01/23 04:11:52;;;;;;;2.30;0.43;;;19.90;47.70;;;;;;4999669;28;20050;-94
2022/01/23 04:14:19;;;;;;;1.80;0.47;;;19.60;47.50;;;;;;4999270;28;20058;-94
2022/01/23 04:19:36;;;;;;;1.00;0.40;;;19.60;47.50;;;;;;4998743;28;20053;-95
2022/01/23 04:33:27;;;;;;;1.27;0.40;;;19.60;47.50;;;;;;4998829;28;20501;-94
2022/01/23 05:00:11;;;;;;;1.13;0.30;;;19.70;47.50;;;;;;4997652;28;20049;-92
2022/01/23 05:05:03;;;;;;;0.95;0.30;;;19.70;47.50;;;;;;4997999;28;20058;-93
2022/01/23 05:07:29;;;;;;;2.17;0.55;;;19.80;47.60;;;;;;4994907;28;20061;-93
2022/01/23 05:09:55;;;;;;;1.88;0.50;;;19.70;47.50;;;;;;4997947;28;20545;-93
2022/01/23 05:12:25;;;;;;;2.17;0.60;;;19.70;47.60;;;;;;4997859;28;20068;-91
2022/01/23 05:14:51;;;;;;;1.15;0.30;;;19.70;47.50;;;;;;4982068;28;20050;-93
2022/01/23 05:17:18;;;;;;;0.65;0.22;;;19.70;47.50;;;;;;4981868;28;20099;-92
2022/01/23 05:19:43;;;;;;;1.40;0.30;;;19.70;47.50;;;;;;4997527;28;20041;-93
2022/01/23 05:25:02;;;;;;;3.10;0.63;;;19.80;47.50;;;;;;4997572;28;20534;-94
2022/01/23 05:27:29;;;;;;;1.40;0.40;;;19.80;47.50;;;;;;4641813;28;10000302;-93
2022/01/23 05:29:57;;;;;;;1.33;0.40;;;19.80;47.50;;;;;;4995669;28;20073;-93
2022/01/23 05:32:24;;;;;;;2.17;0.40;;;19.80;47.50;;;;;;4997614;28;20054;-93
2022/01/23 05:34:50;;;;;;;1.55;0.40;;;19.80;47.50;;;;;;4997442;28;20107;-93
2022/01/23 05:37:16;;;;;;;2.30;0.30;;;19.80;47.40;;;;;;4997328;28;20046;-92
2022/01/23 05:39:42;;;;;;;1.08;0.30;;;19.80;47.50;;;;;;4997021;28;20054;-93
2022/01/23 05:42:09;;;;;;;1.27;0.52;;;19.80;47.40;;;;;;4997243;28;20042;-93
2022/01/23 05:44:39;;;;;;;1.15;0.20;;;19.80;47.40;;;;;;4997848;28;20478;-94
2022/01/23 05:47:04;;;;;;;1.15;0.35;;;19.80;47.40;;;;;;4997344;28;20071;-94
2022/01/23 05:49:30;;;;;;;1.65;0.50;;;19.80;47.40;;;;;;4981127;28;20041;-94
2022/01/23 05:51:55;;;;;;;0.68;0.20;;;19.80;47.40;;;;;;4996933;28;20057;-94
2022/01/23 05:54:21;;;;;;;1.20;0.45;;;19.80;47.40;;;;;;4997311;28;20053;-94
2022/01/23 05:56:47;;;;;;;1.52;0.40;;;19.80;47.40;;;;;;4994658;28;20041;-94
2022/01/23 05:59:12;;;;;;;1.55;0.28;;;19.80;47.40;;;;;;5013048;28;20414;-94
2022/01/23 06:01:38;;;;;;;1.52;0.40;;;19.80;47.40;;;;;;4997427;28;20049;-94
2022/01/23 06:04:04;;;;;;;2.13;0.32;;;20.50;47.70;;;;;;5001628;28;20050;-95
2022/01/23 06:06:30;;;;;;;1.67;0.38;;;19.80;47.30;;;;;;4997099;28;20056;-93
2022/01/23 06:08:55;;;;;;;1.25;0.30;;;19.80;47.40;;;;;;4980113;28;20050;-95
2022/01/23 06:11:21;;;;;;;0.52;0.20;;;19.80;47.40;;;;;;4995651;28;20490;-94
2022/01/23 06:13:46;;;;;;;1.98;0.50;;;19.90;47.40;;;;;;4995859;28;20077;-93
2022/01/23 06:16:12;;;;;;;0.95;0.28;;;19.90;47.40;;;;;;4995491;28;20046;-94
2022/01/23 06:18:40;;;;;;;0.95;0.20;;;19.90;47.40;;;;;;4996545;28;20042;-94
2022/01/23 06:21:07;;;;;;;1.48;0.30;;;19.90;47.50;;;;;;4996536;28;20053;-94
2022/01/23 06:23:32;;;;;;;1.30;0.30;;;19.90;47.40;;;;;;4997001;28;20045;-94
2022/01/23 06:25:58;;;;;;;1.05;0.30;;;19.90;47.50;;;;;;4996464;28;20050;-94
2022/01/23 06:28:29;;;;;;;1.10;0.30;;;19.90;47.40;;;;;;4980466;28;20047;-94
2022/01/23 06:30:55;;;;;;;1.42;0.30;;;19.90;48.20;;;;;;4996386;28;20132;-95
2022/01/23 06:33:20;;;;;;;1.20;0.40;;;20.00;47.50;;;;;;4980614;28;20516;-94
2022/01/23 06:35:46;;;;;;;0.77;0.30;;;19.90;47.40;;;;;;4970209;28;20139;-94
2022/01/23 06:38:12;;;;;;;1.05;0.30;;;19.90;47.50;;;;;;4995021;28;20061;-94
2022/01/23 06:40:37;;;;;;;0.88;0.20;;;19.90;47.50;;;;;;4992973;28;20149;-94
2022/01/23 06:43:03;;;;;;;1.33;0.30;;;19.90;47.40;;;;;;4995465;28;20064;-94
2022/01/23 06:45:28;;;;;;;1.30;0.30;;;20.00;47.50;;;;;;4994590;28;20450;-91
2022/01/23 06:47:54;;;;;;;0.82;0.40;;;21.20;48.10;;;;;;4977143;28;20054;-94
2022/01/23 06:50:19;;;;;;;1.13;0.38;;;20.00;47.50;;;;;;4977338;28;20049;-95
2022/01/23 06:52:45;;;;;;;0.82;0.28;;;20.00;47.50;;;;;;4977158;28;20061;-94
2022/01/23 06:55:10;;;;;;;0.88;0.22;;;20.00;47.50;;;;;;4977140;28;20038;-94
2022/01/23 06:57:36;;;;;;;1.48;0.20;;;20.00;47.50;;;;;;4976991;28;20070;-94
2022/01/23 07:00:03;;;;;;;0.77;0.30;;;21.50;48.30;;;;;;4993901;28;20483;-94
2022/01/23 07:02:31;;;;;;;1.35;0.28;;;20.10;47.50;;;;;;4977547;28;20050;-94
2022/01/23 07:04:57;;;;;;;1.23;0.17;;;20.10;47.60;;;;;;4974927;28;20061;-94
2022/01/23 07:07:22;;;;;;;0.70;0.20;;;20.10;47.50;;;;;;4962999;28;20129;-94
2022/01/23 07:09:48;;;;;;;0.50;0.20;;;20.10;47.40;;;;;;4957039;28;20054;-94
2022/01/23 07:12:13;;;;;;;1.10;0.20;;;20.10;47.50;;;;;;4957066;28;20043;-93
2022/01/23 07:14:39;;;;;;;0.45;0.15;;;20.20;47.50;;;;;;4957376;28;20086;-94
2022/01/23 07:17:04;;;;;;;1.55;0.30;;;20.20;47.50;;;;;;4957597;28;20043;-94
2022/01/23 07:19:30;;;;;;;0.77;0.20;;;20.20;47.50;;;;;;4957330;28;20134;-95
2022/01/23 07:21:56;;;;;;;1.00;0.30;;;20.20;47.50;;;;;;4957595;28;20105;-94
2022/01/23 07:24:23;;;;;;;0.80;0.20;;;20.20;48.10;;;;;;4956849;28;20058;-93
2022/01/23 07:26:48;;;;;;;1.00;0.20;;;20.30;47.50;;;;;;4956913;28;20055;-95
2022/01/23 07:29:15;;;;;;;0.47;0.10;;;20.30;47.40;;;;;;4954544;28;20391;-85
2022/01/23 07:34:08;;;;;;;1.15;0.20;;;20.30;47.40;;;;;;4972942;28;20066;-92
2022/01/23 07:36:34;;;;;;;1.63;0.20;;;20.30;47.30;;;;;;4954146;28;20051;-94
2022/01/23 07:39:00;;;;;;;1.20;0.32;;;20.30;47.30;;;;;;4956822;28;20082;-92
2022/01/23 07:41:25;;;;;;;0.95;0.28;;;21.60;47.90;;;;;;4957046;28;20070;-94
2022/01/23 07:43:51;;;;;;;0.82;0.20;;;20.30;47.20;;;;;;4947643;28;20059;-94
2022/01/23 07:46:16;;;;;;;0.75;0.28;;;20.30;47.20;;;;;;4957301;28;20045;-93
2022/01/23 07:48:42;;;;;;;1.08;0.20;;;20.30;47.20;;;;;;4956556;28;20101;-93
2022/01/23 07:51:08;;;;;;;0.57;0.20;;;20.30;47.20;;;;;;4947981;29;20137;-91
2022/01/23 07:53:33;;;;;;;0.88;0.20;;;20.30;47.10;;;;;;4949438;28;20054;-92
2022/01/23 07:55:59;;;;;;;0.90;0.30;;;20.30;47.10;;;;;;4951097;28;20042;-93
2022/01/23 07:58:24;;;;;;;0.90;0.38;;;20.30;47.10;;;;;;4955243;28;20055;-93
2022/01/23 08:00:50;;;;;;;0.57;0.20;;;20.30;47.00;;;;;;4944668;28;20051;-93
2022/01/23 08:03:15;;;;;;;1.02;0.40;;;20.60;47.20;;;;;;4940557;29;20142;-92
2022/01/23 08:05:43;;;;;;;0.98;0.30;;;20.30;47.10;;;;;;4940647;29;20779;-91
2022/01/23 08:08:08;;;;;;;0.85;0.20;;;20.30;47.10;;;;;;4940667;29;20089;-92
2022/01/23 08:10:34;;;;;;;1.45;0.30;;;21.50;47.70;;;;;;4940498;29;20082;-93
2022/01/23 08:13:00;;;;;;;2.58;0.30;;;20.30;47.00;;;;;;4959015;28;20070;-92
2022/01/23 08:15:25;;;;;;;0.85;0.20;;;20.30;47.00;;;;;;4958912;28;20069;-93
2022/01/23 08:17:51;;;;;;;0.90;0.20;;;20.30;47.00;;;;;;4958006;28;20050;-93
2022/01/23 08:20:16;;;;;;;1.33;0.30;;;20.30;47.10;;;;;;4952854;28;20059;-93
2022/01/23 08:22:42;;;;;;;0.70;0.30;;;20.30;47.00;;;;;;4964609;28;20045;-93
2022/01/23 08:25:08;;;;;;;1.65;0.30;;;20.30;47.00;;;;;;4973081;28;20145;-94
2022/01/23 08:27:34;;;;;;;2.03;0.40;;;20.30;47.00;;;;;;4958228;28;20058;-93
2022/01/23 08:30:00;;;;;;;1.55;0.30;;;20.30;47.00;;;;;;4954100;28;20478;-92
2022/01/23 08:32:26;;;;;;;1.33;0.30;;;20.30;47.00;;;;;;4956808;28;20067;-93
2022/01/23 08:34:52;;;;;;;1.38;0.20;;;20.30;47.00;;;;;;4957016;28;20050;-93
2022/01/23 08:37:19;;;;;;;2.30;0.20;;;20.30;47.00;;;;;;4975926;28;20526;-93
2022/01/23 08:39:45;;;;;;;1.30;0.25;;;20.30;47.00;;;;;;4948775;28;20050;-94
2022/01/23 08:42:18;;;;;;;1.90;0.20;;;20.30;47.10;;;;;;4947661;28;20055;-83
2022/01/23 08:44:45;;;;;;;6.93;1.42;;;20.30;47.00;;;;;;4952878;28;20043;-83
2022/01/23 08:47:10;;;;;;;12.27;1.60;;;20.30;47.30;;;;;;4950977;28;20118;-81
2022/01/23 08:49:43;;;;;;;12.68;1.75;;;20.20;47.50;;;;;;4955576;28;20042;-86
2022/01/23 08:52:09;;;;;;;9.27;1.00;;;20.20;47.80;;;;;;4949116;28;20050;-85
2022/01/23 08:54:35;;;;;;;13.13;1.42;;;20.20;47.50;;;;;;4954887;28;20046;-86
2022/01/23 08:57:00;;;;;;;7.53;1.20;;;20.20;47.50;;;;;;4971030;28;20065;-85
2022/01/23 08:59:26;;;;;;;11.30;1.42;;;21.30;48.00;;;;;;4971239;28;20117;-85
2022/01/23 09:01:51;;;;;;;12.95;1.02;;;20.20;47.40;;;;;;4968638;28;20045;-86
2022/01/23 09:04:17;;;;;;;8.18;1.10;;;20.20;47.50;;;;;;4969820;28;20054;-86
2022/01/23 09:06:43;;;;;;;4.63;0.68;;;20.40;47.60;;;;;;4965750;28;20124;-86
2022/01/23 09:09:15;;;;;;;6.95;1.17;;;20.20;47.50;;;;;;4974097;28;20689;-88
2022/01/23 09:11:53;;;;;;;5.30;0.68;;;20.20;47.50;;;;;;4974436;28;20474;-87
2022/01/23 09:14:20;;;;;;;5.95;0.98;;;20.20;47.50;;;;;;4955713;28;20085;-87
2022/01/23 09:16:48;;;;;;;4.50;0.57;;;20.20;47.50;;;;;;4973397;28;20089;-87
2022/01/23 09:19:14;;;;;;;5.80;0.85;;;20.30;47.50;;;;;;4967694;28;20145;-87
2022/01/23 09:21:49;;;;;;;5.43;0.80;;;20.30;47.60;;;;;;4973156;28;20136;-88
2022/01/23 09:24:18;;;;;;;5.30;0.98;;;21.70;49.10;;;;;;4994721;28;20610;-88
2022/01/23 09:27:05;;;;;;;4.32;0.57;;;20.30;47.50;;;;;;4989507;28;20116;-88
2022/01/23 09:29:36;;;;;;;4.47;0.68;;;20.50;47.60;;;;;;4990089;28;20116;-87
2022/01/23 09:32:08;;;;;;;3.70;0.63;;;20.30;47.50;;;;;;4992044;28;20187;-88
2022/01/23 09:34:33;;;;;;;4.05;0.52;;;20.30;47.60;;;;;;4992604;28;20046;-87
2022/01/23 09:37:07;;;;;;;5.25;0.80;;;20.30;47.50;;;;;;4991509;28;20046;-87
2022/01/23 09:39:33;;;;;;;3.22;0.70;;;20.90;47.80;;;;;;4979271;28;20227;-87
2022/01/23 09:42:06;;;;;;;4.13;0.50;;;20.30;47.60;;;;;;4993008;28;20046;-87
2022/01/23 09:44:37;;;;;;;4.15;0.88;;;20.30;47.50;;;;;;4993544;28;20038;-87
2022/01/23 09:47:03;;;;;;;2.43;0.50;;;20.40;47.60;;;;;;4974863;28;20049;-88
2022/01/23 09:49:29;;;;;;;3.75;0.50;;;20.40;47.60;;;;;;4988548;28;20676;-88
2022/01/23 09:51:55;;;;;;;3.97;0.77;;;20.40;47.50;;;;;;4992350;28;20058;-87
2022/01/23 09:54:20;;;;;;;4.32;0.80;;;20.40;47.50;;;;;;4960725;28;20052;-88
2022/01/23 09:56:46;;;;;;;5.30;0.60;;;20.40;47.50;;;;;;4960070;28;20047;-87
2022/01/23 09:59:13;;;;;;;2.92;0.60;;;20.40;47.50;;;;;;4963937;28;20453;-87
2022/01/23 10:01:40;;;;;;;3.30;0.50;;;20.70;47.70;;;;;;4989614;28;20459;-88
2022/01/23 10:04:06;;;;;;;2.80;0.55;;;20.40;47.50;;;;;;4974934;28;20050;-87
2022/01/23 10:06:32;;;;;;;3.10;0.40;;;20.40;47.50;;;;;;4976728;28;20061;-90
2022/01/23 10:08:59;;;;;;;2.63;0.32;;;20.40;47.40;;;;;;4980643;28;20592;-90
2022/01/23 10:11:24;;;;;;;2.15;0.65;;;21.40;47.90;;;;;;4968086;28;20054;-89
2022/01/23 10:13:50;;;;;;;4.35;0.60;;;20.90;47.70;;;;;;4959264;28;20113;-88
2022/01/23 10:16:16;;;;;;;4.28;0.80;;;20.40;47.40;;;;;;4969206;28;20453;-90
2022/01/23 10:18:42;;;;;;;3.10;0.47;;;20.50;47.50;;;;;;4966026;28;20076;-89
2022/01/23 10:21:07;;;;;;;4.45;0.60;;;20.40;47.40;;;;;;4969961;28;20045;-92
2022/01/23 10:23:34;;;;;;;3.58;0.40;;;20.50;47.40;;;;;;4986988;28;20033;-90
2022/01/23 10:26:01;;;;;;;1.88;0.40;;;21.00;47.70;;;;;;4982609;28;20084;-90
2022/01/23 10:28:29;;;;;;;3.35;0.57;;;20.50;47.40;;;;;;4992741;28;20088;-90
2022/01/23 10:30:57;;;;;;;3.65;0.40;;;21.70;48.00;;;;;;4993406;28;20052;-90
2022/01/23 10:33:45;;;;;;;1.73;0.40;;;20.90;47.60;;;;;;4987993;28;20049;-91
2022/01/23 10:36:12;;;;;;;1.15;0.32;;;20.50;47.40;;;;;;4991796;28;20048;-90
2022/01/23 10:38:45;;;;;;;3.03;0.50;;;20.50;47.30;;;;;;4975775;28;20054;-91
2022/01/23 10:41:31;;;;;;;4.00;0.50;;;20.50;47.30;;;;;;4972407;28;20129;-90
2022/01/23 10:49:51;;;;;;;1.55;0.20;;;20.50;47.30;;;;;;5005546;28;20062;-90
2022/01/23 10:52:38;;;;;;;2.58;0.32;;;20.50;47.30;;;;;;4969772;28;20039;-90
2022/01/23 10:55:07;;;;;;;2.38;0.30;;;20.50;47.30;;;;;;4972745;28;20101;-89
2022/01/23 10:57:42;;;;;;;1.25;0.20;;;20.50;47.30;;;;;;4975327;28;20074;-89
2022/01/23 11:00:26;;;;;;;2.03;0.40;;;20.50;47.30;;;;;;5004480;28;20065;-89
2022/01/23 11:03:00;;;;;;;1.45;0.40;;;20.50;47.30;;;;;;4970872;28;20053;-89
2022/01/23 11:05:41;;;;;;;3.30;0.40;;;20.50;47.60;;;;;;4987139;28;20057;-85
2022/01/23 11:08:37;;;;;;;2.05;0.40;;;21.90;48.60;;;;;;4982079;28;20046;-90
2022/01/23 11:11:12;;;;;;;2.00;0.60;;;19.70;46.90;;;;;;4969049;28;20089;-90
2022/01/23 11:20:17;;;;;;;2.35;0.30;;;18.20;46.20;;;;;;4975343;28;20049;-90
2022/01/23 11:22:51;;;;;;;1.13;0.20;;;20.60;47.40;;;;;;4971912;28;20038;-89
2022/01/23 11:25:29;;;;;;;0.80;0.30;;;20.50;47.50;;;;;;4992051;28;20055;-90
2022/01/23 11:28:13;;;;;;;1.08;0.30;;;19.50;47.70;;;;;;4948524;28;20085;-89
2022/01/23 11:33:46;;;;;;;1.15;0.30;;;19.60;47.30;;;;;;4906781;29;20047;-90
2022/01/23 11:36:34;;;;;;;;;;;20.50;47.40;;;;;;4931692;28;20102;-89
2022/01/23 11:39:42;;;;;;;0.85;0.20;;;19.60;46.80;;;;;;4933096;28;19923;-91
2022/01/23 11:53:57;;;;;;;0.43;0.20;;;20.70;47.70;;;;;;4972018;28;20054;-90
2022/01/23 11:56:26;;;;;;;0.93;0.20;;;20.60;47.40;;;;;;4976974;28;20058;-89
2022/01/23 11:58:53;;;;;;;0.60;0.20;;;20.50;47.30;;;;;;4975687;28;20050;-89
2022/01/23 12:01:20;;;;;;;1.25;0.10;;;20.60;48.00;;;;;;4978134;28;20173;-91
2022/01/23 12:04:08;;;;;;;0.70;0.20;;;21.60;47.80;;;;;;4975720;28;20050;-90
2022/01/23 12:06:39;;;;;;;0.80;0.20;;;20.60;47.30;;;;;;4975846;28;20538;-89
2022/01/23 12:09:16;;;;;;;1.60;0.20;;;20.60;47.30;;;;;;4974920;28;20510;-90
2022/01/23 12:11:56;;;;;;;1.00;0.20;;;20.60;47.30;;;;;;4976903;28;20298;-87
2022/01/23 12:17:10;;;;;;;1.90;0.40;;;20.60;47.20;;;;;;4975817;28;20061;-89
2022/01/23 12:30:51;;;;;;;0.32;0.10;;;20.50;47.10;;;;;;4932250;29;20106;-90
2022/01/23 12:33:56;;;;;;;1.13;0.20;;;20.90;47.40;;;;;;4914233;29;20056;-89
2022/01/23 12:44:04;;;;;;;0.55;0.13;;;20.50;47.10;;;;;;4875921;29;20093;-92
2022/01/23 12:46:59;;;;;;;;;;;;;;;;;;;;;
2022/01/23 12:50:02;;;;;;;0.40;0.10;;;20.70;48.00;;;;;;4913748;29;20048;-90
2022/01/23 12:53:11;;;;;;;0.52;0.20;;;20.40;47.10;;;;;;4885761;29;20621;-90
2022/01/23 12:59:38;;;;;;;1.17;0.25;;;19.50;46.60;;;;;;4944415;28;20552;-90
2022/01/23 13:02:14;;;;;;;0.80;0.20;;;20.80;47.30;;;;;;4990888;28;20050;-90
2022/01/23 13:05:00;;;;;;;1.00;0.30;;;20.70;47.40;;;;;;4980518;28;20042;-90
2022/01/23 13:08:19;;;;;;;0.50;0.10;;;18.60;46.50;;;;;;4987004;28;20054;-90
2022/01/23 13:13:36;;;;;;;0.73;0.10;;;20.50;47.20;;;;;;5005786;28;20457;-90
2022/01/23 13:32:06;;;;;;;0.80;0.10;;;20.60;47.30;;;;;;4987924;28;20054;-90
2022/01/23 13:34:34;;;;;;;0.57;0.10;;;20.50;47.10;;;;;;4992721;28;20722;-90
2022/01/23 13:37:02;;;;;;;0.52;0.10;;;20.50;47.20;;;;;;4986124;28;20056;-90
2022/01/23 13:39:37;;;;;;;1.00;0.20;;;20.50;47.20;;;;;;4994005;28;20053;-90
2022/01/23 13:53:49;;;;;;;0.90;0.17;;;20.60;47.20;;;;;;4994317;28;20049;-86
2022/01/23 13:59:25;;;;;;;0.85;0.10;;;20.60;47.20;;;;;;4994331;28;20073;-89
2022/01/23 14:04:27;;;;;;;0.38;0.10;;;20.60;47.20;;;;;;4979214;28;20054;-90
2022/01/23 14:06:52;;;;;;;0.28;0.10;;;20.80;47.30;;;;;;4993085;28;20061;-90
2022/01/23 14:09:18;;;;;;;0.52;0.13;;;20.60;47.20;;;;;;4977491;28;20057;-91
2022/01/23 14:11:44;;;;;;;0.82;0.10;;;20.60;47.20;;;;;;4993062;28;20038;-90
2022/01/23 14:14:16;;;;;;;0.35;0.10;;;20.60;47.20;;;;;;4994619;28;20060;-90
2022/01/23 14:16:42;;;;;;;1.48;0.10;;;20.60;47.20;;;;;;4983472;28;20058;-90
2022/01/23 14:19:18;;;;;;;0.80;0.10;;;20.60;47.20;;;;;;4992003;28;20044;-90
2022/01/23 14:21:46;;;;;;;1.13;0.30;;;20.60;47.20;;;;;;4991370;28;20041;-91
2022/01/23 14:24:18;;;;;;;0.40;0.10;;;20.60;47.20;;;;;;4990052;28;21235;-90
2022/01/23 14:26:54;;;;;;;;;;;20.60;47.20;;;;;;4977536;28;20057;-90
2022/01/23 14:29:22;;;;;;;0.38;0.10;;;20.60;47.20;;;;;;4988844;28;20015;-89
2022/01/23 14:32:13;;;;;;;0.80;0.10;;;20.60;47.30;;;;;;4990928;28;20056;-90
2022/01/23 14:34:39;;;;;;;0.20;0.10;;;20.60;47.20;;;;;;4976031;28;20057;-90
2022/01/23 14:37:06;;;;;;;0.47;0.10;;;20.60;47.20;;;;;;4993424;28;20049;-90
2022/01/23 14:39:32;;;;;;;0.70;0.15;;;20.60;47.20;;;;;;4993857;28;20551;-89
2022/01/23 14:42:09;;;;;;;0.63;0.10;;;20.60;47.20;;;;;;4993274;28;20050;-89
2022/01/23 14:44:35;;;;;;;0.50;0.10;;;20.60;47.20;;;;;;4993635;28;20042;-91
2022/01/23 14:47:01;;;;;;;0.40;0.10;;;20.60;47.20;;;;;;4977199;28;20504;-91
2022/01/23 14:49:28;;;;;;;0.25;0.05;;;20.60;47.10;;;;;;4992895;28;20073;-90
2022/01/23 14:51:55;;;;;;;0.20;0.10;;;20.60;47.20;;;;;;4994650;28;20156;-89
2022/01/23 14:54:21;;;;;;;0.43;0.10;;;20.60;47.20;;;;;;4990854;28;20060;-90
2022/01/23 14:56:47;;;;;;;0.20;0.00;;;20.50;47.10;;;;;;4991914;28;20041;-91
2022/01/23 14:59:13;;;;;;;0.15;0.00;;;20.60;47.10;;;;;;4993274;28;20482;-91
2022/01/23 15:01:39;;;;;;;0.30;0.10;;;20.60;47.10;;;;;;4993199;28;20048;-90
2022/01/23 15:04:06;;;;;;;0.22;0.10;;;20.60;47.10;;;;;;4991922;28;20058;-90
2022/01/23 15:06:32;;;;;;;0.52;0.15;;;20.50;47.10;;;;;;4991399;28;20517;-89
2022/01/23 15:09:09;;;;;;;0.75;0.17;;;20.60;47.10;;;;;;5008867;28;20049;-91
2022/01/23 15:11:34;;;;;;;0.20;0.10;;;20.50;47.10;;;;;;4992038;28;20764;-90
2022/01/23 15:14:00;;;;;;;0.50;0.15;;;20.50;47.10;;;;;;4993211;28;20042;-88
2022/01/23 15:16:25;;;;;;;0.52;0.13;;;20.60;47.20;;;;;;5006461;28;20608;-88
2022/01/23 15:18:51;;;;;;;0.40;0.20;;;20.50;47.10;;;;;;5008848;28;20041;-89
2022/01/23 15:21:16;;;;;;;0.10;0.10;;;20.50;47.10;;;;;;4988834;28;20046;-89
2022/01/23 15:23:42;;;;;;;0.10;0.00;;;20.50;47.10;;;;;;5003948;28;20405;-88
2022/01/23 15:26:08;;;;;;;0.80;0.20;;;20.50;47.10;;;;;;5008652;28;20045;-90
2022/01/23 15:28:33;;;;;;;0.00;0.00;;;20.50;47.10;;;;;;5009570;28;20140;-88
2022/01/23 15:30:59;;;;;;;0.38;0.10;;;20.50;47.10;;;;;;4992885;28;20038;-88
2022/01/23 15:33:24;;;;;;;0.20;0.10;;;20.50;47.20;;;;;;4990877;28;20438;-90
2022/01/23 15:35:50;;;;;;;0.20;0.08;;;20.50;47.20;;;;;;4990270;28;20137;-90
2022/01/23 15:38:16;;;;;;;0.30;0.10;;;20.50;47.20;;;;;;4992677;28;20046;-89
2022/01/23 15:40:42;;;;;;;3.35;0.10;;;20.50;47.20;;;;;;4984647;28;20054;-90
2022/01/23 15:43:08;;;;;;;0.47;0.10;;;20.50;47.20;;;;;;4989195;28;20501;-90
2022/01/23 15:45:33;;;;;;;1.65;0.10;;;20.50;47.20;;;;;;4991453;28;20105;-89
2022/01/23 15:47:59;;;;;;;0.40;0.03;;;21.20;47.60;;;;;;5008405;28;20073;-89
2022/01/23 15:50:24;;;;;;;0.20;0.00;;;20.50;47.20;;;;;;5008679;28;20076;-89
2022/01/23 15:52:50;;;;;;;0.70;0.13;;;20.50;47.20;;;;;;4991584;28;20456;-90
2022/01/23 15:55:16;;;;;;;0.38;0.10;;;20.50;47.20;;;;;;4992427;28;20038;-90
2022/01/23 15:57:42;;;;;;;0.32;0.20;;;20.50;47.20;;;;;;4990988;28;20120;-89
2022/01/23 16:00:09;;;;;;;0.30;0.10;;;20.60;47.30;;;;;;4989661;28;20132;-89
2022/01/23 16:02:35;;;;;;;0.10;0.10;;;20.60;47.30;;;;;;4992732;28;20481;-90
2022/01/23 16:05:01;;;;;;;0.28;0.10;;;20.60;47.30;;;;;;4992049;28;20056;-89
2022/01/23 16:07:27;;;;;;;1.35;0.10;;;20.60;47.30;;;;;;4990979;28;20084;-90
2022/01/23 16:09:52;;;;;;;0.20;0.00;;;20.60;47.30;;;;;;4987577;28;20058;-90
2022/01/23 16:12:18;;;;;;;0.63;0.10;;;21.60;47.90;;;;;;4984455;28;20034;-90
2022/01/23 16:14:43;;;;;;;0.10;0.00;;;20.60;47.30;;;;;;4988189;28;20168;-90
2022/01/23 16:17:09;;;;;;;0.40;0.03;;;20.60;47.30;;;;;;4988830;28;20045;-90
2022/01/23 16:19:37;;;;;;;0.30;0.10;;;20.60;47.30;;;;;;4990485;28;20050;-89
2022/01/23 16:22:03;;;;;;;0.10;0.10;;;20.60;47.30;;;;;;4989003;28;20053;-90
2022/01/23 16:24:29;;;;;;;0.50;0.20;;;20.60;47.30;;;;;;4994654;28;20045;-90
2022/01/23 16:26:55;;;;;;;0.30;0.10;;;21.80;47.90;;;;;;4993936;28;20567;-90
2022/01/23 16:29:24;;;;;;;0.20;0.10;;;20.60;47.30;;;;;;4993796;28;20630;-91
2022/01/23 16:31:51;;;;;;;0.45;0.10;;;20.60;47.30;;;;;;4990535;28;20061;-91